Terminal Aerodrome Forecast
Issued by NWS Albany, NY

Home | Current Version | Previous Version | Text Only | Print | Product List | Glossary On
Versions: 1 2 3 4 5 6 7 8 9 10 11 12 13 14
000
FTUS41 KALY 282325
TAFALB
TAF
KALB 282325Z 2900/2924 33003KT P6SM BKN250
     FM290300 00000KT P6SM SCT250
     FM291400 18004KT P6SM FEW050 SCT100
     FM291800 18008KT P6SM VCSH SCT050 BKN080=

USA.gov is the U.S. government's official web portal to all federal, state and local government web resources and services.